Time;durP1;ratioP1;P1;durP2;ratioP2;P2;SDS_P1;SDS_P2;PMS_P1;PMS_P2;Temp;Humidity;BMP_temperature;BMP_pressure;BME280_temperature;BME280_humidity;BME280_pressure;Samples;Min_cycle;Max_cycle;Signal;HPM_P1;HPM_P2
2022/08/01 00:00:11;;;;;;;68.00;7.40;;;23.20;63.50;;;;;;5080267;28;20167;-82
2022/08/01 00:02:38;;;;;;;66.80;6.43;;;23.30;62.40;;;;;;5083220;28;20171;-83
2022/08/01 00:05:07;;;;;;;66.80;6.70;;;23.30;62.40;;;;;;5080983;28;20900;-82
2022/08/01 00:07:34;;;;;;;66.30;6.63;;;23.40;60.50;;;;;;5081527;28;20808;-82
2022/08/01 00:10:00;;;;;;;66.50;6.43;;;23.40;60.90;;;;;;5082513;28;20407;-82
2022/08/01 00:12:26;;;;;;;66.20;6.50;;;23.40;62.10;;;;;;5081887;28;20402;-82
2022/08/01 00:14:51;;;;;;;66.77;7.10;;;23.40;60.90;;;;;;5081584;28;20893;-82
2022/08/01 00:17:17;;;;;;;68.93;6.53;;;23.40;62.10;;;;;;5081077;28;20270;-82
2022/08/01 00:19:43;;;;;;;65.73;7.10;;;23.40;62.10;;;;;;5081414;28;20184;-82
2022/08/01 00:22:08;;;;;;;66.43;7.90;;;23.40;61.40;;;;;;5080500;28;20160;-82
2022/08/01 00:24:34;;;;;;;67.80;7.30;;;23.40;61.50;;;;;;5080186;28;20168;-82
2022/08/01 00:27:00;;;;;;;65.20;7.23;;;23.30;63.80;;;;;;5080278;28;20164;-82
2022/08/01 00:29:25;;;;;;;66.27;7.20;;;23.30;64.20;;;;;;5080766;28;20222;-82
2022/08/01 00:31:51;;;;;;;69.67;6.80;;;23.30;65.30;;;;;;5080791;28;20195;-82
2022/08/01 00:34:17;;;;;;;65.70;5.90;;;23.20;69.30;;;;;;5080231;28;20171;-82
2022/08/01 00:36:43;;;;;;;68.87;5.67;;;23.20;70.80;;;;;;5081058;28;20541;-82
2022/08/01 00:39:09;;;;;;;65.00;5.60;;;23.20;70.40;;;;;;5081935;28;20184;-82
2022/08/01 00:41:34;;;;;;;65.43;6.83;;;23.20;69.50;;;;;;5079907;28;20171;-83
2022/08/01 00:44:06;;;;;;;65.57;5.50;;;23.10;74.40;;;;;;5080112;28;20191;-82
2022/08/01 00:46:33;;;;;;;65.50;5.77;;;23.10;73.00;;;;;;5080447;28;20203;-82
2022/08/01 00:48:59;;;;;;;65.57;5.87;;;23.10;74.30;;;;;;5080968;28;20940;-82
2022/08/01 00:51:26;;;;;;;66.17;5.53;;;23.00;75.80;;;;;;5080232;28;20417;-82
2022/08/01 00:53:52;;;;;;;64.77;4.70;;;23.10;75.40;;;;;;5080495;28;20406;-82
2022/08/01 00:56:25;;;;;;;67.97;5.00;;;23.10;76.90;;;;;;5079963;28;20453;-82
2022/08/01 00:58:51;;;;;;;64.80;5.90;;;23.10;78.40;;;;;;5079886;28;20836;-82
2022/08/01 01:01:20;;;;;;;64.17;4.30;;;23.00;84.80;;;;;;5080658;28;20409;-83
2022/08/01 01:03:47;;;;;;;65.53;4.60;;;23.00;82.40;;;;;;5082881;28;20972;-83
2022/08/01 01:06:33;;;;;;;66.10;5.40;;;23.10;82.70;;;;;;5080468;28;20983;-82
2022/08/01 01:09:36;;;;;;;65.00;5.63;;;23.10;86.70;;;;;;5079495;28;20415;-83
2022/08/01 01:12:17;;;;;;;65.43;6.70;;;23.10;90.10;;;;;;5080266;28;20440;-82
2022/08/01 01:15:02;;;;;;;66.80;7.03;;;23.00;91.00;;;;;;5080347;28;20958;-82
2022/08/01 01:17:35;;;;;;;65.07;7.10;;;23.00;91.20;;;;;;5078307;28;20464;-82
2022/08/01 01:20:05;;;;;;;65.17;6.60;;;22.80;93.60;;;;;;5078330;28;20924;-83
2022/08/01 01:22:54;;;;;;;66.67;7.43;;;22.90;93.70;;;;;;5079729;28;20452;-82
2022/08/01 01:25:31;;;;;;;65.87;7.00;;;22.70;95.50;;;;;;5078566;28;20415;-82
2022/08/01 01:28:28;;;;;;;65.53;8.27;;;22.70;95.80;;;;;;5079846;28;20441;-82
2022/08/01 01:30:56;;;;;;;65.40;8.23;;;22.60;98.20;;;;;;5079559;28;20408;-82
2022/08/01 01:33:25;;;;;;;73.40;8.37;;;22.60;98.20;;;;;;5079269;28;20395;-82
2022/08/01 01:35:55;;;;;;;66.50;8.10;;;22.60;98.40;;;;;;5079724;28;20453;-82
2022/08/01 01:38:25;;;;;;;64.97;7.20;;;22.60;99.20;;;;;;5081316;28;20418;-82
2022/08/01 01:40:53;;;;;;;67.80;7.83;;;22.60;98.90;;;;;;5084194;28;20466;-82
2022/08/01 01:43:20;;;;;;;66.20;7.67;;;22.70;98.30;;;;;;5086545;28;20413;-83
2022/08/01 01:45:47;;;;;;;65.70;7.30;;;22.70;97.60;;;;;;5084662;28;20474;-82
2022/08/01 01:48:19;;;;;;;68.10;7.33;;;22.70;98.00;;;;;;5084585;28;20425;-82
2022/08/01 01:50:47;;;;;;;64.90;5.80;;;22.60;99.20;;;;;;5082285;28;20413;-82
2022/08/01 01:53:15;;;;;;;65.30;7.30;;;22.70;98.80;;;;;;5084374;28;20420;-82
2022/08/01 01:55:44;;;;;;;68.40;7.07;;;22.60;99.40;;;;;;5084139;28;20418;-82
2022/08/01 01:58:13;;;;;;;66.30;8.53;;;22.70;98.50;;;;;;5084245;28;20457;-82
2022/08/01 02:00:41;;;;;;;67.00;7.73;;;22.80;97.30;;;;;;5085623;28;20406;-83
2022/08/01 02:03:11;;;;;;;66.73;6.20;;;22.80;98.00;;;;;;5082622;28;20399;-82
2022/08/01 02:05:39;;;;;;;67.57;7.27;;;22.70;97.80;;;;;;5084010;28;20920;-82
2022/08/01 02:08:06;;;;;;;69.83;6.60;;;22.80;97.70;;;;;;5083586;28;20428;-82
2022/08/01 02:10:34;;;;;;;64.67;6.07;;;22.80;98.10;;;;;;5081437;28;20410;-82
2022/08/01 02:13:03;;;;;;;66.10;6.63;;;22.70;99.10;;;;;;5084879;28;20427;-83
2022/08/01 02:15:31;;;;;;;65.27;7.27;;;22.70;99.80;;;;;;5086145;28;20391;-83
2022/08/01 02:17:59;;;;;;;65.00;5.57;;;22.70;99.90;;;;;;5085512;28;20463;-82
2022/08/01 02:20:29;;;;;;;66.33;5.60;;;22.60;99.90;;;;;;5084471;28;20897;-83
2022/08/01 02:23:10;;;;;;;67.80;5.70;;;22.50;99.90;;;;;;5085809;28;20832;-83
2022/08/01 02:25:44;;;;;;;68.67;6.60;;;22.50;99.90;;;;;;5083333;28;20398;-82
2022/08/01 02:28:36;;;;;;;66.90;6.27;;;22.50;99.90;;;;;;5084932;28;20936;-83
2022/08/01 02:31:06;;;;;;;67.50;6.13;;;22.50;99.90;;;;;;5082474;28;20393;-82
2022/08/01 02:33:39;;;;;;;65.37;5.53;;;22.40;99.90;;;;;;5082824;28;20383;-82
2022/08/01 02:36:06;;;;;;;65.67;7.07;;;22.30;99.90;;;;;;5082623;28;20443;-82
2022/08/01 02:38:36;;;;;;;66.20;6.17;;;22.20;99.90;;;;;;5082418;28;20426;-82
2022/08/01 02:41:08;;;;;;;66.00;4.67;;;22.20;99.90;;;;;;5081230;28;20390;-82
2022/08/01 02:43:39;;;;;;;64.77;5.07;;;22.30;99.90;;;;;;5085168;28;20448;-83
2022/08/01 02:46:10;;;;;;;65.87;4.97;;;22.30;99.90;;;;;;5082936;28;20394;-82
2022/08/01 02:48:38;;;;;;;65.20;4.90;;;22.30;99.90;;;;;;5085294;28;20418;-83
2022/08/01 02:51:06;;;;;;;64.40;4.97;;;22.40;99.90;;;;;;5143764;22;20842;-80
2022/08/01 02:53:36;;;;;;;65.00;5.17;;;22.40;99.90;;;;;;5041121;28;20427;-81
2022/08/01 02:56:05;;;;;;;64.20;4.60;;;22.40;99.90;;;;;;5039425;28;20467;-80
2022/08/01 02:58:33;;;;;;;65.23;4.60;;;22.50;99.90;;;;;;5041226;28;20428;-81
2022/08/01 03:00:59;;;;;;;66.00;5.50;;;22.50;99.90;;;;;;5041004;28;20404;-80
2022/08/01 03:03:25;;;;;;;65.90;5.07;;;22.50;99.90;;;;;;5041662;28;20606;-80
2022/08/01 03:05:52;;;;;;;64.97;4.60;;;22.50;99.90;;;;;;5040873;28;20929;-80
2022/08/01 03:08:20;;;;;;;65.67;5.13;;;22.40;99.90;;;;;;5040424;28;20420;-80
2022/08/01 03:10:47;;;;;;;66.37;4.63;;;22.50;99.90;;;;;;5041016;28;20466;-81
2022/08/01 03:13:15;;;;;;;63.87;4.20;;;22.30;99.90;;;;;;5040705;28;20435;-81
2022/08/01 03:15:43;;;;;;;64.50;4.70;;;22.30;99.90;;;;;;5038918;28;20413;-80
2022/08/01 03:18:11;;;;;;;63.77;4.43;;;22.40;99.90;;;;;;5040228;28;20428;-80
2022/08/01 03:20:37;;;;;;;64.07;4.57;;;22.40;99.90;;;;;;5040280;28;20396;-80
2022/08/01 03:23:07;;;;;;;65.17;4.70;;;22.30;99.90;;;;;;5039603;28;20407;-81
2022/08/01 03:25:35;;;;;;;64.47;5.00;;;22.30;99.90;;;;;;5038884;28;20487;-81
2022/08/01 03:28:03;;;;;;;65.53;4.53;;;22.20;99.90;;;;;;5040349;28;20416;-80
2022/08/01 03:30:31;;;;;;;64.67;4.60;;;22.20;99.90;;;;;;5040126;28;20392;-80
2022/08/01 03:32:57;;;;;;;66.23;5.00;;;22.20;99.90;;;;;;5039767;28;20424;-81
2022/08/01 03:35:29;;;;;;;66.53;4.03;;;22.20;99.90;;;;;;5039511;28;20415;-81
2022/08/01 03:37:56;;;;;;;65.17;4.20;;;22.30;99.90;;;;;;5039341;28;20458;-80
2022/08/01 03:40:25;;;;;;;65.20;4.60;;;22.30;99.90;;;;;;5039956;28;20408;-80
2022/08/01 03:43:11;;;;;;;66.57;3.83;;;22.40;99.90;;;;;;5038701;28;20408;-81
2022/08/01 03:45:41;;;;;;;65.60;3.70;;;22.30;99.90;;;;;;5038919;28;20389;-81
2022/08/01 03:48:13;;;;;;;64.60;4.10;;;22.10;99.90;;;;;;5039007;28;20420;-80
2022/08/01 03:50:43;;;;;;;67.40;4.27;;;22.20;99.90;;;;;;5040129;28;20383;-80
2022/08/01 03:53:11;;;;;;;66.10;4.70;;;22.30;99.90;;;;;;5039126;28;20938;-80
2022/08/01 03:55:39;;;;;;;64.47;4.00;;;22.30;99.90;;;;;;5038262;28;20436;-80
2022/08/01 03:58:06;;;;;;;65.57;4.33;;;22.30;99.90;;;;;;5038357;28;20428;-80
2022/08/01 04:00:32;;;;;;;64.60;5.30;;;22.40;99.90;;;;;;5039278;28;20400;-80
2022/08/01 04:02:58;;;;;;;68.70;4.70;;;22.30;99.90;;;;;;5039210;28;20412;-80
2022/08/01 04:05:25;;;;;;;66.00;4.73;;;22.40;99.90;;;;;;5039808;28;20951;-81
2022/08/01 04:07:57;;;;;;;68.20;6.00;;;22.40;99.90;;;;;;5037778;28;20439;-80
2022/08/01 04:10:23;;;;;;;66.50;4.77;;;22.30;99.90;;;;;;5040144;28;20380;-80
2022/08/01 04:12:49;;;;;;;66.17;5.30;;;22.30;99.90;;;;;;5037694;28;20418;-81
2022/08/01 04:15:15;;;;;;;66.37;5.77;;;22.30;99.90;;;;;;5038078;28;20403;-80
2022/08/01 04:17:41;;;;;;;66.20;5.43;;;22.30;99.90;;;;;;5038844;28;20300;-80
2022/08/01 04:20:07;;;;;;;67.70;4.73;;;22.30;99.90;;;;;;5039361;28;20432;-80
2022/08/01 04:22:33;;;;;;;68.00;5.40;;;22.40;99.90;;;;;;5037592;28;20180;-81
2022/08/01 04:25:01;;;;;;;64.80;4.73;;;22.50;99.90;;;;;;5038783;28;20430;-80
2022/08/01 04:27:32;;;;;;;68.30;5.43;;;22.40;99.90;;;;;;5038828;28;20471;-80
2022/08/01 04:30:00;;;;;;;67.77;4.90;;;22.40;99.90;;;;;;5039245;28;20377;-80
2022/08/01 04:32:30;;;;;;;67.13;4.90;;;22.40;99.90;;;;;;5038976;28;20404;-81
2022/08/01 04:34:58;;;;;;;71.00;5.40;;;22.40;99.90;;;;;;5038063;28;20412;-81
2022/08/01 04:37:25;;;;;;;67.27;5.43;;;22.30;99.90;;;;;;5038768;28;20530;-80
2022/08/01 04:39:53;;;;;;;65.60;5.07;;;22.30;99.90;;;;;;5037495;28;20447;-81
2022/08/01 04:42:19;;;;;;;65.60;5.70;;;22.30;99.90;;;;;;5039207;28;20907;-80
2022/08/01 04:44:45;;;;;;;65.67;5.10;;;22.30;99.90;;;;;;5038464;28;20399;-80
2022/08/01 04:47:13;;;;;;;66.30;4.97;;;22.30;99.90;;;;;;5037774;28;20676;-81
2022/08/01 04:49:39;;;;;;;71.83;6.30;;;22.30;99.90;;;;;;5037612;28;20428;-81
2022/08/01 04:52:06;;;;;;;68.20;5.60;;;22.30;99.90;;;;;;5038762;28;20428;-81
2022/08/01 04:54:33;;;;;;;71.27;5.53;;;22.30;99.90;;;;;;5038630;28;20430;-81
2022/08/01 04:57:00;;;;;;;67.73;6.27;;;22.30;99.90;;;;;;5039134;28;20435;-81
2022/08/01 04:59:41;;;;;;;67.57;5.60;;;22.30;99.90;;;;;;5038446;28;20424;-81
2022/08/01 05:02:16;;;;;;;67.10;6.33;;;22.30;99.90;;;;;;5037802;28;20931;-80
2022/08/01 05:04:42;;;;;;;68.90;5.63;;;22.30;99.90;;;;;;5037348;28;20415;-81
2022/08/01 05:07:09;;;;;;;72.37;5.60;;;22.40;99.90;;;;;;5038184;28;20903;-81
2022/08/01 05:09:38;;;;;;;69.23;6.80;;;22.40;99.90;;;;;;5037897;28;20555;-81
2022/08/01 05:12:05;;;;;;;68.63;5.20;;;22.30;99.90;;;;;;5038546;28;20408;-80
2022/08/01 05:14:31;;;;;;;67.37;6.33;;;22.30;99.90;;;;;;5042657;28;20838;-80
2022/08/01 05:17:03;;;;;;;68.80;6.47;;;22.30;99.90;;;;;;5040727;28;20448;-80
2022/08/01 05:19:39;;;;;;;68.50;5.83;;;22.30;99.90;;;;;;5041615;28;20435;-81
2022/08/01 05:22:07;;;;;;;69.20;6.77;;;22.20;99.90;;;;;;5042630;28;20409;-80
2022/08/01 05:24:35;;;;;;;67.70;6.17;;;22.20;99.90;;;;;;5040932;28;20415;-80
2022/08/01 05:27:01;;;;;;;67.80;6.13;;;22.30;99.90;;;;;;5040877;28;20404;-81
2022/08/01 05:29:27;;;;;;;74.33;7.67;;;22.20;99.90;;;;;;5042658;28;20435;-81
2022/08/01 05:31:53;;;;;;;69.57;7.13;;;22.20;99.90;;;;;;5040977;28;20412;-80
2022/08/01 05:34:20;;;;;;;69.67;7.07;;;22.10;99.90;;;;;;5043266;28;20404;-81
2022/08/01 05:36:46;;;;;;;67.97;6.60;;;22.20;99.90;;;;;;5040501;28;20436;-81
2022/08/01 05:39:13;;;;;;;71.17;6.43;;;22.30;99.90;;;;;;5042356;28;20419;-81
2022/08/01 05:41:39;;;;;;;72.10;7.87;;;22.40;99.90;;;;;;5042116;28;20422;-81
2022/08/01 05:44:05;;;;;;;75.97;8.67;;;22.40;99.90;;;;;;5041714;28;20407;-80
2022/08/01 05:46:31;;;;;;;73.20;8.20;;;22.40;99.90;;;;;;5040260;28;20408;-81
2022/08/01 05:48:58;;;;;;;71.23;7.40;;;22.40;99.90;;;;;;5041145;28;20185;-80
2022/08/01 05:51:24;;;;;;;72.43;7.33;;;22.40;99.90;;;;;;5039552;28;20439;-80
2022/08/01 05:53:50;;;;;;;70.97;7.77;;;22.30;99.90;;;;;;5041743;28;20443;-80
2022/08/01 05:56:24;;;;;;;77.67;8.50;;;22.30;99.90;;;;;;5040195;28;20439;-80
2022/08/01 05:58:51;;;;;;;71.70;7.50;;;22.30;99.90;;;;;;5040303;28;20196;-80
2022/08/01 06:01:17;;;;;;;72.80;8.00;;;22.20;99.90;;;;;;5041697;28;20400;-80
2022/08/01 06:03:43;;;;;;;76.00;7.50;;;22.20;99.90;;;;;;5040465;28;20825;-80
2022/08/01 06:06:16;;;;;;;72.30;7.10;;;22.20;99.90;;;;;;5041394;28;20412;-80
2022/08/01 06:08:42;;;;;;;72.13;8.20;;;22.30;99.90;;;;;;5042057;28;20189;-81
2022/08/01 06:11:08;;;;;;;71.77;8.50;;;22.40;99.90;;;;;;5040486;28;20427;-81
2022/08/01 06:13:34;;;;;;;74.60;8.93;;;22.60;99.90;;;;;;5040873;28;20406;-81
2022/08/01 06:15:59;;;;;;;73.80;8.57;;;22.60;99.90;;;;;;5040396;28;20189;-81
2022/08/01 06:18:25;;;;;;;73.07;8.77;;;22.60;99.90;;;;;;5040964;28;20434;-80
2022/08/01 06:20:51;;;;;;;77.30;8.50;;;22.60;99.90;;;;;;5039737;28;20560;-80
2022/08/01 06:23:16;;;;;;;72.50;8.50;;;22.70;99.90;;;;;;5041434;28;20172;-80
2022/08/01 06:25:43;;;;;;;71.00;7.47;;;22.70;99.90;;;;;;5041428;28;20166;-81
2022/08/01 06:28:09;;;;;;;71.97;6.47;;;22.70;99.90;;;;;;5040376;28;20287;-80
2022/08/01 06:30:34;;;;;;;72.33;8.00;;;22.80;99.90;;;;;;5041093;28;20432;-81
2022/08/01 06:33:00;;;;;;;72.37;7.90;;;22.90;99.90;;;;;;5039624;28;20530;-80
2022/08/01 06:35:29;;;;;;;70.70;7.10;;;22.90;99.90;;;;;;5040891;28;20166;-80
2022/08/01 06:37:55;;;;;;;72.47;8.00;;;22.90;99.90;;;;;;5039391;28;20229;-80
2022/08/01 06:40:21;;;;;;;74.10;7.40;;;23.10;99.90;;;;;;5039134;28;20503;-80
2022/08/01 06:42:47;;;;;;;70.50;6.80;;;23.20;99.90;;;;;;5039490;28;20464;-82
2022/08/01 06:45:14;;;;;;;75.70;7.73;;;23.10;99.90;;;;;;5040774;28;20170;-80
2022/08/01 06:47:44;;;;;;;73.30;8.30;;;23.10;99.90;;;;;;5040288;28;21021;-80
2022/08/01 06:50:11;;;;;;;69.10;7.80;;;23.20;99.90;;;;;;5039735;28;20400;-80
2022/08/01 06:52:37;;;;;;;69.90;8.00;;;23.30;99.90;;;;;;5040295;28;20937;-80
2022/08/01 06:55:04;;;;;;;70.37;7.93;;;23.40;99.90;;;;;;5039569;28;20782;-80
2022/08/01 06:57:29;;;;;;;69.27;7.43;;;23.40;99.90;;;;;;5040651;28;21098;-80
2022/08/01 06:59:55;;;;;;;70.73;6.87;;;23.40;99.90;;;;;;5040869;28;20512;-80
2022/08/01 07:02:22;;;;;;;73.20;7.83;;;23.60;99.90;;;;;;5041246;28;20660;-80
2022/08/01 07:04:48;;;;;;;68.33;7.60;;;23.70;98.90;;;;;;5041424;28;20168;-80
2022/08/01 07:07:14;;;;;;;72.10;8.27;;;23.80;98.60;;;;;;5039313;28;20907;-80
2022/08/01 07:09:41;;;;;;;71.40;8.73;;;23.80;95.70;;;;;;5039031;28;20443;-80
2022/08/01 07:12:07;;;;;;;69.73;7.77;;;23.80;85.70;;;;;;5040277;28;20172;-80
2022/08/01 07:14:32;;;;;;;68.97;8.83;;;23.60;87.50;;;;;;5040789;28;20888;-80
2022/08/01 07:16:58;;;;;;;70.20;8.83;;;23.50;90.30;;;;;;5038878;28;20475;-81
2022/08/01 07:19:24;;;;;;;74.90;10.03;;;23.40;90.80;;;;;;5038848;28;20193;-80
2022/08/01 07:21:49;;;;;;;72.07;8.93;;;23.20;92.90;;;;;;5040577;28;20161;-80
2022/08/01 07:24:15;;;;;;;70.80;10.27;;;23.20;93.60;;;;;;5038789;28;20170;-80
2022/08/01 07:26:44;;;;;;;74.70;9.37;;;23.20;94.10;;;;;;5040049;28;20169;-80
2022/08/01 07:29:10;;;;;;;79.33;10.47;;;23.20;94.90;;;;;;5039511;28;20509;-80
2022/08/01 07:31:35;;;;;;;69.27;10.13;;;23.10;95.40;;;;;;5040392;28;20756;-80
2022/08/01 07:34:01;;;;;;;70.17;10.53;;;23.10;95.80;;;;;;5039587;28;20248;-80
2022/08/01 07:36:27;;;;;;;71.10;10.50;;;23.00;98.00;;;;;;5038475;28;20212;-79
2022/08/01 07:38:53;;;;;;;70.67;9.60;;;23.20;97.80;;;;;;5039730;28;20264;-79
2022/08/01 07:41:18;;;;;;;71.47;11.47;;;23.40;95.70;;;;;;5039947;28;20524;-80
2022/08/01 07:43:44;;;;;;;75.93;10.57;;;23.60;93.70;;;;;;5038949;28;20176;-79
2022/08/01 07:46:10;;;;;;;71.00;10.33;;;23.60;90.50;;;;;;5038554;28;20173;-79
2022/08/01 07:48:36;;;;;;;71.90;10.73;;;23.60;90.70;;;;;;5037531;28;20193;-80
2022/08/01 07:51:02;;;;;;;72.90;9.50;;;23.60;91.70;;;;;;5037754;28;20169;-80
2022/08/01 07:53:28;;;;;;;71.13;9.87;;;23.50;91.60;;;;;;5037922;28;20412;-80
2022/08/01 07:55:54;;;;;;;70.97;9.87;;;23.60;91.60;;;;;;5039692;28;20224;-80
2022/08/01 07:58:22;;;;;;;70.40;8.73;;;23.70;90.90;;;;;;5039824;28;20459;-80
2022/08/01 08:00:48;;;;;;;70.47;8.10;;;23.90;90.90;;;;;;5038937;28;20172;-80
2022/08/01 08:03:14;;;;;;;71.53;8.00;;;24.00;91.10;;;;;;5037127;28;20776;-79
2022/08/01 08:05:40;;;;;;;70.40;7.83;;;24.20;82.20;;;;;;5038561;28;20168;-80
2022/08/01 08:08:06;;;;;;;69.87;7.20;;;24.20;83.60;;;;;;5039701;28;20835;-80
2022/08/01 08:10:33;;;;;;;70.17;7.03;;;24.20;79.40;;;;;;5039298;28;20174;-80
2022/08/01 08:13:00;;;;;;;71.00;7.80;;;24.20;83.30;;;;;;5038781;28;20396;-80
2022/08/01 08:15:26;;;;;;;68.30;6.67;;;24.10;81.30;;;;;;5039512;28;20400;-80
2022/08/01 08:17:51;;;;;;;68.80;6.83;;;24.10;82.00;;;;;;5037861;28;20525;-80
2022/08/01 08:20:17;;;;;;;71.53;6.67;;;24.10;79.90;;;;;;5038339;28;20198;-80
2022/08/01 08:22:43;;;;;;;69.87;6.30;;;24.10;71.80;;;;;;5039108;28;20167;-80
2022/08/01 08:25:09;;;;;;;73.13;6.30;;;24.20;71.30;;;;;;5039147;28;20165;-80
2022/08/01 08:27:36;;;;;;;70.63;6.73;;;24.30;74.20;;;;;;5038453;28;20250;-80
2022/08/01 08:30:05;;;;;;;68.43;6.17;;;24.40;73.60;;;;;;5037490;28;20169;-80
2022/08/01 08:32:31;;;;;;;69.50;7.33;;;24.50;68.70;;;;;;5039000;28;20490;-80
2022/08/01 08:34:57;;;;;;;71.20;9.00;;;24.70;67.70;;;;;;5038723;28;20490;-80
2022/08/01 08:37:22;;;;;;;67.67;8.27;;;24.70;50.60;;;;;;5038612;28;20196;-79
2022/08/01 08:39:48;;;;;;;69.87;9.03;;;24.70;57.00;;;;;;5039065;28;20167;-80
2022/08/01 08:42:14;;;;;;;72.20;10.63;;;24.90;53.60;;;;;;5038925;28;20209;-81
2022/08/01 08:44:43;;;;;;;70.73;10.60;;;24.90;52.20;;;;;;5038021;28;20170;-80
2022/08/01 08:47:11;;;;;;;69.20;10.23;;;24.80;52.50;;;;;;5038212;28;20186;-80
2022/08/01 08:49:37;;;;;;;71.17;11.87;;;24.80;55.10;;;;;;5038090;28;20520;-79
2022/08/01 08:52:04;;;;;;;73.97;12.87;;;24.80;54.90;;;;;;5056182;23;20480;-80
2022/08/01 08:54:32;;;;;;;71.53;13.70;;;24.70;49.70;;;;;;5062273;28;20395;-81
2022/08/01 08:56:59;;;;;;;72.57;13.33;;;24.70;48.30;;;;;;5044402;28;20456;-80
2022/08/01 08:59:27;;;;;;;73.47;12.50;;;24.80;51.20;;;;;;5060379;28;20469;-80
2022/08/01 09:01:53;;;;;;;70.77;11.30;;;24.90;52.70;;;;;;5059824;28;20902;-81
2022/08/01 09:04:24;;;;;;;69.87;13.30;;;24.90;54.30;;;;;;5061917;28;20440;-80
2022/08/01 09:06:50;;;;;;;73.53;14.07;;;25.10;50.90;;;;;;5062200;28;20166;-80
2022/08/01 09:09:16;;;;;;;72.20;15.77;;;25.20;46.40;;;;;;5041202;28;20527;-80
2022/08/01 09:11:42;;;;;;;69.77;12.03;;;25.10;35.90;;;;;;5059008;28;20419;-81
2022/08/01 09:14:29;;;;;;;68.30;8.70;;;25.20;36.10;;;;;;5044068;28;20414;-80
2022/08/01 09:17:08;;;;;;;70.40;9.40;;;25.30;33.40;;;;;;5060020;28;20185;-80
2022/08/01 09:19:40;;;;;;;67.03;5.73;;;25.20;34.10;;;;;;5041358;28;20492;-80
2022/08/01 09:22:08;;;;;;;67.30;5.20;;;25.30;29.10;;;;;;5061609;28;20390;-80
2022/08/01 09:24:35;;;;;;;71.80;6.33;;;25.20;28.30;;;;;;5061886;28;20409;-80
2022/08/01 09:27:01;;;;;;;67.50;7.00;;;25.20;32.10;;;;;;5044381;28;20930;-80
2022/08/01 09:29:30;;;;;;;68.67;7.33;;;25.10;33.00;;;;;;5044358;28;20445;-80
2022/08/01 09:31:57;;;;;;;69.40;9.77;;;25.00;30.70;;;;;;5061887;28;20420;-81
2022/08/01 09:34:29;;;;;;;70.93;11.47;;;24.80;37.20;;;;;;5043913;28;20486;-80
2022/08/01 09:37:00;;;;;;;74.93;15.07;;;24.80;40.30;;;;;;5040626;28;20476;-80
2022/08/01 09:39:27;;;;;;;74.90;17.13;;;24.80;44.20;;;;;;5060624;28;20447;-80
2022/08/01 09:41:55;;;;;;;72.10;14.30;;;24.70;47.20;;;;;;5043411;28;20810;-81
2022/08/01 09:44:40;;;;;;;71.70;14.77;;;24.60;46.60;;;;;;5041456;28;20407;-80
2022/08/01 09:47:06;;;;;;;73.10;16.23;;;24.70;47.60;;;;;;5040390;28;20778;-80
2022/08/01 09:49:34;;;;;;;72.10;16.43;;;24.80;48.90;;;;;;5060754;28;20436;-81
2022/08/01 09:52:20;;;;;;;70.10;14.30;;;25.10;42.60;;;;;;5060595;28;20197;-81
2022/08/01 09:55:06;;;;;;;70.40;10.50;;;25.30;37.80;;;;;;5043385;28;20759;-80
2022/08/01 09:57:32;;;;;;;71.43;8.50;;;25.60;33.50;;;;;;5059083;28;20542;-80
2022/08/01 09:59:59;;;;;;;69.10;5.70;;;25.60;29.40;;;;;;5058956;28;20406;-81
2022/08/01 10:02:36;;;;;;;68.80;5.50;;;25.50;23.30;;;;;;5045815;28;20478;-80
2022/08/01 10:05:07;;;;;;;68.40;6.20;;;25.50;20.00;;;;;;5062262;28;20412;-80
2022/08/01 10:07:34;;;;;;;69.00;5.80;;;25.40;24.80;;;;;;5062791;28;20465;-80
2022/08/01 10:10:13;;;;;;;69.00;5.37;;;25.40;25.70;;;;;;5045104;28;20417;-81
2022/08/01 10:12:40;;;;;;;70.67;5.83;;;25.50;21.00;;;;;;5043654;28;20456;-80
2022/08/01 10:15:07;;;;;;;69.47;5.00;;;25.60;18.00;;;;;;5044829;28;20493;-80
2022/08/01 10:17:34;;;;;;;67.90;5.57;;;25.60;20.40;;;;;;5062610;28;20981;-80
2022/08/01 10:20:02;;;;;;;69.23;5.27;;;25.80;21.00;;;;;;5062924;28;20390;-80
2022/08/01 10:22:31;;;;;;;70.53;5.67;;;25.70;18.60;;;;;;5043028;28;20469;-80
2022/08/01 10:25:01;;;;;;;70.90;6.37;;;25.60;19.90;;;;;;5043079;28;20426;-80
2022/08/01 10:27:31;;;;;;;69.93;5.73;;;25.50;21.80;;;;;;5042737;28;20413;-80
2022/08/01 10:30:05;;;;;;;68.60;4.93;;;25.50;22.20;;;;;;5042191;28;20417;-80
2022/08/01 10:32:35;;;;;;;70.07;5.77;;;25.60;23.90;;;;;;5062606;28;20757;-80
2022/08/01 10:35:04;;;;;;;69.53;6.63;;;25.60;23.10;;;;;;5041833;28;20453;-80
2022/08/01 10:37:35;;;;;;;70.00;6.03;;;25.70;20.80;;;;;;5060602;28;20462;-80
2022/08/01 10:40:01;;;;;;;69.10;5.40;;;26.00;22.80;;;;;;5060591;28;20391;-80
2022/08/01 10:42:27;;;;;;;67.87;5.63;;;26.30;16.60;;;;;;5059874;28;20912;-80
2022/08/01 10:44:55;;;;;;;69.00;5.10;;;26.40;14.90;;;;;;5059996;28;20473;-80
2022/08/01 10:47:27;;;;;;;69.10;5.07;;;26.50;15.10;;;;;;5041002;28;20411;-80
2022/08/01 10:50:07;;;;;;;68.40;5.67;;;26.20;9.20;;;;;;5041358;28;20465;-80
2022/08/01 10:52:33;;;;;;;70.77;5.50;;;25.90;10.90;;;;;;5059434;28;20423;-80
2022/08/01 10:55:04;;;;;;;68.00;5.27;;;25.70;13.70;;;;;;5059172;28;20388;-80
2022/08/01 10:57:47;;;;;;;67.50;5.03;;;25.60;17.20;;;;;;5041583;28;20196;-80
2022/08/01 11:00:18;;;;;;;69.27;5.23;;;25.50;19.50;;;;;;5059971;28;20409;-79
2022/08/01 11:03:02;;;;;;;67.40;4.83;;;25.60;18.80;;;;;;5060759;28;20422;-80
2022/08/01 11:05:31;;;;;;;71.10;5.77;;;25.70;17.30;;;;;;5060905;28;20384;-80
2022/08/01 11:08:02;;;;;;;67.57;4.57;;;25.80;18.70;;;;;;5059666;28;20450;-80
2022/08/01 11:10:44;;;;;;;69.00;5.90;;;26.20;14.80;;;;;;5059929;28;20382;-80
2022/08/01 11:13:11;;;;;;;69.00;4.93;;;26.50;8.00;;;;;;5042424;28;20469;-79
2022/08/01 11:15:40;;;;;;;67.10;4.60;;;26.50;4.30;;;;;;5060308;28;20894;-79
2022/08/01 11:18:29;;;;;;;67.97;4.50;;;26.30;1.00;;;;;;5042611;28;20468;-79
2022/08/01 11:21:00;;;;;;;69.80;4.03;;;26.10;5.30;;;;;;5058891;28;20517;-80
2022/08/01 11:23:31;;;;;;;68.50;4.37;;;26.40;4.50;;;;;;5059415;28;20414;-80
2022/08/01 11:26:02;;;;;;;71.37;4.70;;;26.70;5.10;;;;;;5060279;28;20375;-80
2022/08/01 11:28:29;;;;;;;69.27;4.70;;;26.90;3.80;;;;;;5059173;28;20509;-81
2022/08/01 11:31:07;;;;;;;69.73;5.03;;;26.90;1.00;;;;;;5041168;28;20910;-80
2022/08/01 11:33:42;;;;;;;68.53;4.53;;;26.60;1.00;;;;;;5040053;28;20414;-80
2022/08/01 11:36:15;;;;;;;67.80;4.20;;;26.50;1.00;;;;;;5040120;28;20454;-80
2022/08/01 11:38:41;;;;;;;67.20;4.07;;;26.80;1.00;;;;;;5058688;28;20423;-79
2022/08/01 11:41:13;;;;;;;67.10;4.23;;;27.40;1.00;;;;;;5058315;28;20396;-80
2022/08/01 11:44:07;;;;;;;68.20;3.90;;;27.80;1.00;;;;;;5059685;28;20403;-80
2022/08/01 11:46:59;;;;;;;69.63;4.07;;;27.80;1.00;;;;;;5058671;28;20403;-80
2022/08/01 11:49:44;;;;;;;66.90;3.90;;;27.40;1.00;;;;;;5059613;28;20480;-80
2022/08/01 11:52:09;;;;;;;67.60;3.90;;;27.20;1.00;;;;;;5040302;28;20521;-80
2022/08/01 11:54:36;;;;;;;68.17;4.20;;;27.00;1.00;;;;;;5061092;28;20859;-81
2022/08/01 11:57:07;;;;;;;68.67;4.10;;;26.60;1.00;;;;;;5058828;28;20700;-80
2022/08/01 11:59:38;;;;;;;66.80;3.60;;;26.50;1.00;;;;;;5060930;28;20411;-81
2022/08/01 12:02:13;;;;;;;67.07;3.97;;;26.50;1.00;;;;;;5058507;28;20478;-80
2022/08/01 12:04:53;;;;;;;67.07;3.53;;;26.70;1.00;;;;;;5059122;28;20479;-80
2022/08/01 12:07:20;;;;;;;66.90;3.57;;;27.00;1.00;;;;;;5039865;28;20914;-80
2022/08/01 12:09:46;;;;;;;67.23;3.57;;;27.40;1.00;;;;;;5059052;28;20403;-80
2022/08/01 12:12:16;;;;;;;67.73;3.80;;;27.80;1.00;;;;;;5058297;28;20444;-80
2022/08/01 12:14:42;;;;;;;69.07;3.70;;;28.10;1.00;;;;;;5057641;28;20835;-79
2022/08/01 12:17:08;;;;;;;66.67;3.17;;;28.30;1.00;;;;;;5041318;28;20890;-79
2022/08/01 12:19:36;;;;;;;67.03;3.20;;;28.20;1.00;;;;;;5057489;28;20418;-79
2022/08/01 12:22:14;;;;;;;66.70;3.00;;;28.20;1.00;;;;;;5039013;28;20234;-79
2022/08/01 12:24:41;;;;;;;71.47;4.43;;;28.30;1.00;;;;;;5057910;28;20458;-79
2022/08/01 12:27:09;;;;;;;69.10;3.87;;;28.30;1.00;;;;;;5059645;28;20404;-80
2022/08/01 12:29:41;;;;;;;68.30;4.23;;;28.00;1.00;;;;;;5040383;28;20431;-80
2022/08/01 12:32:24;;;;;;;70.00;4.43;;;27.50;1.00;;;;;;5058943;28;20403;-81
2022/08/01 12:34:50;;;;;;;67.50;4.50;;;27.20;1.00;;;;;;5057838;28;20403;-81
2022/08/01 12:37:17;;;;;;;69.47;4.63;;;26.80;1.00;;;;;;5056087;28;20450;-81
2022/08/01 12:39:43;;;;;;;68.17;4.13;;;26.70;1.00;;;;;;5038975;28;20427;-80
2022/08/01 12:42:10;;;;;;;68.87;4.47;;;26.70;1.00;;;;;;5055702;28;20397;-80
2022/08/01 12:44:37;;;;;;;70.47;4.90;;;26.60;1.00;;;;;;5037725;28;20426;-80
2022/08/01 12:47:05;;;;;;;69.10;5.20;;;26.50;1.00;;;;;;5055069;28;20414;-81